Yuncos, Spain
Current Conditions -  °F | °C
As of 7:00 AM on Monday 22 Dec 2014 (Local Time) from LEGT Reporting Station
Clear Clear  
Wind Chill: 34°   Ceiling: Unl
Heat Index: 34°   Visibility: 6mi
Dew Point: 32°   Wind: 2mph
Humidity: 93%   Direction: 140°SE
Pressure: 30.45"   Gusts: NA
Location:  40.09°N, 3.87°W
Report Text: LEGT 220600Z 14002KT CAVOK 01/M00 Q1031
Loading
Personal Weather Stations






























Interactive Weather Map New forecast layout! Learn more

10-Day Weather Forecast

Advertisements
Track Severe Weather on mobile